createdAt,value
2019-04-25T00:05:26.439Z,58.70
2019-04-25T00:12:12.196Z,59.00
2019-04-25T00:18:58.598Z,58.90
2019-04-25T00:25:46.904Z,60.20
2019-04-25T00:32:33.070Z,59.70
2019-04-25T00:39:18.063Z,60.30
2019-04-25T00:46:02.987Z,60.50
2019-04-25T00:52:48.320Z,60.90
2019-04-25T00:59:37.821Z,61.30
2019-04-25T01:06:22.948Z,60.20
2019-04-25T01:13:07.862Z,59.80
2019-04-25T01:19:54.824Z,59.20
2019-04-25T01:26:39.773Z,60.10
2019-04-25T01:33:26.462Z,60.80
2019-04-25T01:40:29.490Z,61.00
2019-04-25T01:47:16.673Z,60.30
2019-04-25T01:54:01.526Z,60.20
2019-04-25T02:00:48.227Z,60.30
2019-04-25T02:07:33.630Z,60.50
2019-04-25T02:14:19.843Z,59.80
2019-04-25T02:21:05.162Z,58.80
2019-04-25T02:27:50.020Z,57.60
2019-04-25T02:34:34.992Z,58.60
2019-04-25T02:41:21.045Z,59.50
2019-04-25T02:48:25.125Z,60.10
2019-04-25T02:55:29.556Z,60.30
2019-04-25T03:01:59.044Z,60.30
2019-04-25T03:08:45.000Z,60.10
2019-04-25T03:15:30.058Z,59.90
2019-04-25T03:22:16.696Z,59.40
2019-04-25T03:29:03.877Z,58.50
2019-04-25T03:35:48.965Z,59.10
2019-04-25T03:42:34.325Z,58.60
2019-04-25T03:49:19.298Z,59.30
2019-04-25T03:56:05.995Z,60.00
2019-04-25T04:02:50.833Z,60.80
2019-04-25T04:09:36.282Z,61.40
2019-04-25T04:16:23.253Z,61.40
2019-04-25T04:23:15.707Z,62.10
2019-04-25T04:30:00.911Z,58.40
2019-04-25T04:36:46.636Z,59.50
2019-04-25T04:43:34.194Z,60.10
2019-04-25T04:50:19.159Z,60.30
2019-04-25T04:57:16.681Z,60.80
2019-04-25T05:03:55.726Z,62.40
2019-04-25T05:10:40.594Z,61.30
2019-04-25T05:17:26.950Z,60.80
2019-04-25T05:24:12.843Z,61.40
2019-04-25T05:31:06.734Z,61.40
2019-04-25T05:37:53.281Z,60.30
2019-04-25T05:44:38.300Z,46.80
2019-04-25T05:51:23.912Z,45.00
2019-04-25T05:58:09.788Z,44.80
2019-04-25T06:04:54.663Z,34.60
2019-04-25T06:11:56.676Z,24.60
2019-04-25T06:18:44.011Z,21.80
2019-04-25T06:25:34.772Z,20.10
2019-04-25T06:32:17.699Z,19.30
2019-04-25T06:39:03.994Z,18.40
2019-04-25T06:45:56.408Z,18.60
2019-04-25T06:52:41.412Z,17.90
2019-04-25T06:59:27.537Z,18.00
2019-04-25T07:06:14.579Z,18.00
2019-04-25T07:13:00.383Z,17.30
2019-04-25T07:19:45.326Z,17.00
2019-04-25T07:26:40.939Z,16.80
2019-04-25T07:33:28.192Z,16.40
2019-04-25T07:40:15.212Z,16.10
2019-04-25T07:47:00.142Z,15.10
2019-04-25T07:53:45.000Z,15.80
2019-04-25T08:00:30.231Z,16.00
2019-04-25T08:07:16.030Z,15.60
2019-04-25T08:14:09.390Z,15.90
2019-04-25T08:20:54.495Z,16.00
2019-04-25T08:27:39.453Z,14.90
2019-04-25T08:34:24.466Z,15.20
2019-04-25T08:41:09.407Z,15.50
2019-04-25T08:47:54.280Z,15.60
2019-04-25T08:54:45.661Z,15.30
2019-04-25T09:01:45.794Z,14.80
2019-04-25T09:08:30.823Z,15.40
2019-04-25T09:15:15.829Z,15.00
2019-04-25T09:22:00.938Z,15.30
2019-04-25T09:28:46.676Z,15.50
2019-04-25T09:35:33.498Z,16.30
2019-04-25T09:42:18.587Z,16.60
2019-04-25T09:49:11.138Z,16.50
2019-04-25T09:56:04.143Z,16.00
2019-04-25T10:02:50.659Z,16.40
2019-04-25T10:09:35.735Z,16.30
2019-04-25T10:16:22.115Z,17.00
2019-04-25T10:23:07.672Z,17.60
2019-04-25T10:29:54.498Z,18.30
2019-04-25T10:36:41.259Z,17.80
2019-04-25T10:43:26.104Z,17.90
2019-04-25T10:50:11.367Z,18.80
2019-04-25T10:57:15.756Z,20.70
2019-04-25T11:04:04.900Z,21.30
2019-04-25T11:10:50.026Z,22.40
2019-04-25T11:17:34.971Z,22.50
2019-04-25T11:24:20.039Z,22.70
2019-04-25T11:31:06.510Z,22.30
2019-04-25T11:37:53.167Z,23.60
2019-04-25T11:44:38.561Z,22.40
2019-04-25T11:51:24.011Z,21.40
2019-04-25T11:58:08.994Z,21.30
2019-04-25T12:04:54.954Z,19.70
2019-04-25T12:11:43.536Z,20.20
2019-04-25T12:18:28.323Z,20.10
2019-04-25T12:25:15.097Z,19.40
2019-04-25T12:32:04.120Z,19.50
2019-04-25T12:38:49.107Z,19.40
2019-04-25T12:45:43.306Z,18.80
2019-04-25T12:52:30.434Z,18.90
2019-04-25T12:59:15.139Z,19.20
2019-04-25T13:06:00.069Z,16.40
2019-04-25T13:12:46.375Z,15.70
2019-04-25T13:19:31.339Z,14.60
2019-04-25T13:26:17.975Z,15.20
2019-04-25T13:33:06.967Z,15.90
2019-04-25T13:39:54.104Z,15.80
2019-04-25T13:46:40.594Z,15.50
2019-04-25T13:53:25.763Z,16.00
2019-04-25T14:00:11.896Z,16.60
2019-04-25T14:06:58.074Z,16.70
2019-04-25T14:13:44.031Z,15.40
2019-04-25T14:20:40.516Z,15.20
2019-04-25T14:27:26.297Z,15.50
2019-04-25T14:34:13.306Z,15.20
2019-04-25T14:41:00.309Z,15.60
2019-04-25T14:47:46.230Z,15.40
2019-04-25T14:54:33.576Z,15.90
2019-04-25T15:01:21.605Z,16.50
2019-04-25T15:08:07.683Z,15.40
2019-04-25T15:14:52.535Z,15.80
2019-04-25T15:21:37.470Z,15.80
2019-04-25T15:28:22.390Z,15.90
2019-04-25T15:35:09.029Z,15.40
2019-04-25T15:41:55.710Z,16.00
2019-04-25T15:48:41.247Z,16.40
2019-04-25T15:55:26.256Z,16.30
2019-04-25T16:02:13.893Z,16.40
2019-04-25T16:08:58.904Z,16.70
2019-04-25T16:15:43.870Z,16.90
2019-04-25T16:22:29.116Z,16.90
2019-04-25T16:29:14.510Z,16.60
2019-04-25T16:35:59.520Z,16.70
2019-04-25T16:42:44.519Z,17.00
2019-04-25T16:49:29.984Z,17.00
2019-04-25T16:56:15.059Z,17.30
2019-04-25T17:03:00.072Z,17.80
2019-04-25T17:09:46.744Z,17.90
2019-04-25T17:16:33.447Z,19.20
2019-04-25T17:23:18.745Z,19.20
2019-04-25T17:30:04.952Z,19.50
2019-04-25T17:37:09.067Z,20.00
2019-04-25T17:43:53.943Z,20.20
2019-04-25T17:50:39.673Z,20.40
2019-04-25T17:57:26.170Z,20.80
2019-04-25T18:04:11.188Z,20.70
2019-04-25T18:10:56.123Z,28.10
2019-04-25T18:17:41.071Z,36.20
2019-04-25T18:24:39.639Z,40.50
2019-04-25T18:31:24.643Z,41.30
2019-04-25T18:38:26.090Z,40.50
2019-04-25T18:45:12.918Z,40.10
2019-04-25T18:52:00.480Z,38.40
2019-04-25T18:59:02.471Z,39.10
2019-04-25T19:05:49.075Z,40.50
2019-04-25T19:12:34.024Z,39.70
2019-04-25T19:19:19.874Z,41.00
2019-04-25T19:26:04.995Z,42.70
2019-04-25T19:32:51.552Z,44.50
2019-04-25T19:39:39.221Z,45.10
2019-04-25T19:46:28.311Z,46.60
2019-04-25T19:53:13.191Z,47.60
2019-04-25T19:59:58.051Z,48.10
2019-04-25T20:07:02.331Z,49.30
2019-04-25T20:13:47.566Z,49.20
2019-04-25T20:20:32.527Z,48.30
2019-04-25T20:27:17.827Z,48.50
2019-04-25T20:34:06.166Z,47.30
2019-04-25T20:40:50.311Z,47.60
2019-04-25T20:47:35.315Z,47.10
2019-04-25T20:54:20.209Z,47.70
2019-04-25T21:01:05.254Z,48.00
2019-04-25T21:07:51.236Z,47.70
2019-04-25T21:14:50.701Z,48.20
2019-04-25T21:21:35.642Z,49.40
2019-04-25T21:28:20.590Z,49.40
2019-04-25T21:35:06.561Z,49.60
2019-04-25T21:42:12.407Z,49.70
2019-04-25T21:48:57.450Z,50.60
2019-04-25T21:55:42.312Z,50.30
2019-04-25T22:02:28.248Z,51.20
2019-04-25T22:09:17.490Z,51.10
2019-04-25T22:16:04.245Z,51.60
2019-04-25T22:22:49.462Z,52.60
2019-04-25T22:29:36.088Z,53.30
2019-04-25T22:36:28.303Z,53.10
2019-04-25T22:43:13.600Z,53.00
2019-04-25T22:49:58.962Z,53.70
2019-04-25T22:56:45.290Z,53.20
2019-04-25T23:03:32.159Z,54.10
2019-04-25T23:10:17.191Z,55.30
2019-04-25T23:17:03.596Z,55.50
2019-04-25T23:23:48.535Z,55.60
2019-04-25T23:30:40.856Z,57.70
2019-04-25T23:37:26.043Z,57.70
2019-04-25T23:44:12.086Z,56.80
2019-04-25T23:50:57.367Z,56.80
2019-04-25T23:57:43.477Z,57.60
